Time;durP1;ratioP1;P1;durP2;ratioP2;P2;SDS_P1;SDS_P2;PMS_P1;PMS_P2;Temp;Humidity;BMP_temperature;BMP_pressure;BME280_temperature;BME280_humidity;BME280_pressure;Samples;Min_cycle;Max_cycle;Signal;HPM_P1;HPM_P2
2022/05/23 00:01:21;;;;;;;16.55;6.88;;;;;;;;;;5073169;28;20492;-62
2022/05/23 00:03:47;;;;;;;16.70;6.45;;;;;;;;;;5072844;28;20032;-62
2022/05/23 00:06:16;;;;;;;16.75;6.18;;;;;;;;;;5072803;28;20025;-62
2022/05/23 00:08:43;;;;;;;15.93;5.43;;;;;;;;;;5072839;28;20032;-62
2022/05/23 00:11:09;;;;;;;18.27;6.05;;;;;;;;;;5072789;28;20021;-62
2022/05/23 00:13:35;;;;;;;11.95;5.43;;;;;;;;;;5072508;28;20028;-62
2022/05/23 00:16:02;;;;;;;14.02;5.13;;;;;;;;;;5072702;28;20396;-62
2022/05/23 00:18:29;;;;;;;19.10;6.40;;;;;;;;;;5072857;28;20028;-62
2022/05/23 00:20:55;;;;;;;11.32;5.05;;;;;;;;;;5072563;28;20039;-62
2022/05/23 00:23:22;;;;;;;13.35;5.75;;;;;;;;;;5072725;28;20500;-62
2022/05/23 00:25:49;;;;;;;13.43;5.30;;;;;;;;;;5072431;28;20389;-62
2022/05/23 00:28:15;;;;;;;12.95;6.90;;;;;;;;;;5072168;28;20032;-62
2022/05/23 00:30:41;;;;;;;16.33;6.47;;;;;;;;;;5072700;28;20461;-62
2022/05/23 00:35:54;;;;;;;11.82;6.65;;;;;;;;;;5072129;28;20033;-62
2022/05/23 00:38:20;;;;;;;13.13;6.22;;;;;;;;;;5071249;28;20366;-62
2022/05/23 00:43:13;;;;;;;10.45;4.97;;;;;;;;;;5072209;28;20040;-62
2022/05/23 00:43:43;;;;;;;7.85;4.53;;;;;;;;;;5072058;28;20045;-62
2022/05/23 00:46:11;;;;;;;13.88;6.82;;;;;;;;;;5071607;28;20091;-62
2022/05/23 00:48:37;;;;;;;15.38;6.25;;;;;;;;;;5070844;28;20070;-62
2022/05/23 00:51:10;;;;;;;18.42;6.97;;;;;;;;;;5072157;28;20450;-62
2022/05/23 00:53:38;;;;;;;11.23;6.40;;;;;;;;;;5072474;28;20048;-62
2022/05/23 00:56:06;;;;;;;14.07;6.72;;;;;;;;;;5071921;28;20021;-62
2022/05/23 00:58:34;;;;;;;12.80;7.20;;;;;;;;;;5070666;28;20032;-62
2022/05/23 01:01:04;;;;;;;16.40;7.40;;;;;;;;;;5070695;28;20032;-62
2022/05/23 01:03:30;;;;;;;9.68;5.40;;;;;;;;;;5070740;28;20481;-62
2022/05/23 01:05:56;;;;;;;8.60;5.53;;;;;;;;;;5070842;28;20029;-62
2022/05/23 01:08:23;;;;;;;8.23;5.00;;;;;;;;;;5072243;28;20413;-62
2022/05/23 01:10:49;;;;;;;9.95;5.97;;;;;;;;;;5070632;28;20056;-62
2022/05/23 01:13:16;;;;;;;13.32;5.80;;;;;;;;;;5070370;28;20115;-62
2022/05/23 01:15:47;;;;;;;10.68;6.10;;;;;;;;;;5072129;28;20020;-62
2022/05/23 01:18:14;;;;;;;13.63;5.65;;;;;;;;;;5070487;28;20029;-62
2022/05/23 01:20:40;;;;;;;10.48;6.60;;;;;;;;;;5072162;28;20146;-63
2022/05/23 01:23:12;;;;;;;12.63;6.72;;;;;;;;;;5070545;28;20032;-62
2022/05/23 01:26:02;;;;;;;12.88;6.05;;;;;;;;;;5070133;28;20032;-62
2022/05/23 01:28:37;;;;;;;11.75;6.15;;;;;;;;;;5070704;28;20095;-62
2022/05/23 01:31:06;;;;;;;11.48;6.93;;;;;;;;;;5070329;28;20567;-62
2022/05/23 01:33:32;;;;;;;11.82;6.88;;;;;;;;;;5070679;28;20020;-62
2022/05/23 01:36:01;;;;;;;13.55;6.00;;;;;;;;;;5070312;28;20059;-62
2022/05/23 01:38:27;;;;;;;11.20;5.43;;;;;;;;;;5070655;28;20101;-62
2022/05/23 01:41:06;;;;;;;10.13;5.82;;;;;;;;;;5069891;28;20484;-62
2022/05/23 01:43:34;;;;;;;13.65;6.07;;;;;;;;;;5070726;28;20037;-62
2022/05/23 01:46:21;;;;;;;12.48;6.78;;;;;;;;;;5071427;28;20048;-62
2022/05/23 01:49:13;;;;;;;12.07;6.32;;;;;;;;;;5059956;28;20408;-62
2022/05/23 01:51:41;;;;;;;14.05;6.15;;;;;;;;;;5070493;28;20028;-62
2022/05/23 01:54:08;;;;;;;17.42;8.98;;;;;;;;;;5070087;28;20029;-62
2022/05/23 01:56:35;;;;;;;15.98;9.07;;;;;;;;;;5070092;28;20063;-62
2022/05/23 02:01:49;;;;;;;20.40;9.75;;;;;;;;;;5074141;28;20111;-62
2022/05/23 02:04:32;;;;;;;19.98;9.40;;;;;;;;;;5074385;28;20111;-62
2022/05/23 02:06:58;;;;;;;19.10;10.70;;;;;;;;;;5073780;28;20037;-62
2022/05/23 02:09:33;;;;;;;25.55;11.80;;;;;;;;;;5073662;28;20027;-62
2022/05/23 02:12:13;;;;;;;21.27;12.20;;;;;;;;;;5074093;28;20085;-63
2022/05/23 02:14:39;;;;;;;26.20;14.02;;;;;;;;;;5057328;28;20025;-62
2022/05/23 02:17:17;;;;;;;20.90;12.30;;;;;;;;;;5053558;28;20029;-62
2022/05/23 02:19:43;;;;;;;21.63;11.55;;;;;;;;;;5055192;28;20059;-62
2022/05/23 02:22:14;;;;;;;16.38;10.15;;;;;;;;;;5053721;28;20032;-62
2022/05/23 02:24:41;;;;;;;18.48;10.55;;;;;;;;;;5053467;28;20051;-62
2022/05/23 02:27:07;;;;;;;19.88;9.18;;;;;;;;;;5053417;28;20025;-62
2022/05/23 02:29:37;;;;;;;18.65;9.35;;;;;;;;;;5054816;28;20112;-62
2022/05/23 02:32:04;;;;;;;18.73;9.75;;;;;;;;;;5053512;28;20021;-62
2022/05/23 02:34:30;;;;;;;19.92;9.52;;;;;;;;;;5053529;28;20477;-62
2022/05/23 02:36:56;;;;;;;19.40;10.68;;;;;;;;;;5053295;28;20036;-62
2022/05/23 02:39:39;;;;;;;20.53;9.90;;;;;;;;;;5053114;28;20444;-62
2022/05/23 02:42:05;;;;;;;17.17;9.57;;;;;;;;;;5071125;28;20087;-62
2022/05/23 02:44:32;;;;;;;19.50;9.90;;;;;;;;;;5073338;28;20476;-62
2022/05/23 02:47:01;;;;;;;25.15;10.45;;;;;;;;;;5073120;28;20052;-62
2022/05/23 02:49:31;;;;;;;16.83;9.40;;;;;;;;;;5073454;28;20021;-62
2022/05/23 02:51:58;;;;;;;18.33;10.95;;;;;;;;;;5073194;28;20060;-62
2022/05/23 02:54:30;;;;;;;16.67;10.32;;;;;;;;;;5073019;28;20021;-62
2022/05/23 02:57:01;;;;;;;22.42;10.45;;;;;;;;;;5072672;28;20040;-62
2022/05/23 02:59:29;;;;;;;22.75;10.63;;;;;;;;;;5074250;28;20475;-62
2022/05/23 03:04:52;;;;;;;18.77;10.20;;;;;;;;;;5074092;28;20029;-62
2022/05/23 03:07:18;;;;;;;17.40;10.00;;;;;;;;;;5073633;28;20027;-62
2022/05/23 03:09:57;;;;;;;22.40;10.35;;;;;;;;;;5072567;28;20091;-62
2022/05/23 03:12:27;;;;;;;21.60;10.65;;;;;;;;;;5072564;28;20033;-62
2022/05/23 03:14:53;;;;;;;19.15;10.15;;;;;;;;;;5072572;28;20078;-62
2022/05/23 03:17:20;;;;;;;16.27;9.27;;;;;;;;;;5072543;28;20140;-62
2022/05/23 03:19:47;;;;;;;21.10;10.02;;;;;;;;;;5072868;28;20021;-62
2022/05/23 03:27:46;;;;;;;18.50;10.43;;;;;;;;;;5072535;28;20032;-62
2022/05/23 03:30:23;;;;;;;23.08;11.93;;;;;;;;;;5072248;28;20067;-62
2022/05/23 03:32:54;;;;;;;22.77;11.75;;;;;;;;;;5073783;28;20461;-62
2022/05/23 03:35:21;;;;;;;23.48;12.10;;;;;;;;;;5072152;28;20032;-62
2022/05/23 03:37:47;;;;;;;31.85;14.27;;;;;;;;;;5073290;28;20031;-62
2022/05/23 03:40:14;;;;;;;26.95;15.02;;;;;;;;;;5071909;28;20552;-62
2022/05/23 03:42:47;;;;;;;29.73;14.90;;;;;;;;;;5072279;28;20040;-62
2022/05/23 03:45:13;;;;;;;25.38;14.88;;;;;;;;;;5071966;28;20411;-62
2022/05/23 03:47:46;;;;;;;22.95;14.68;;;;;;;;;;5072057;28;20440;-62
2022/05/23 03:50:17;;;;;;;23.83;12.85;;;;;;;;;;5071741;28;20180;-62
2022/05/23 03:52:44;;;;;;;24.05;13.43;;;;;;;;;;5071640;28;20119;-62
2022/05/23 03:55:17;;;;;;;24.55;13.27;;;;;;;;;;5071848;28;20472;-62
2022/05/23 03:57:45;;;;;;;23.73;12.82;;;;;;;;;;5071712;28;20057;-62
2022/05/23 04:00:15;;;;;;;23.98;13.20;;;;;;;;;;5071803;28;20083;-63
2022/05/23 04:02:48;;;;;;;25.63;12.77;;;;;;;;;;5071845;28;20032;-62
2022/05/23 04:05:16;;;;;;;23.40;13.40;;;;;;;;;;5072787;28;20032;-62
2022/05/23 04:07:48;;;;;;;21.27;13.13;;;;;;;;;;5072959;28;20068;-62
2022/05/23 04:10:23;;;;;;;23.52;12.05;;;;;;;;;;5071412;28;20063;-62
2022/05/23 04:12:49;;;;;;;21.73;11.80;;;;;;;;;;5072763;28;20048;-62
2022/05/23 04:15:15;;;;;;;23.33;12.30;;;;;;;;;;5071446;28;20028;-62
2022/05/23 04:17:41;;;;;;;26.80;13.18;;;;;;;;;;5072907;28;20028;-62
2022/05/23 04:20:08;;;;;;;25.10;13.75;;;;;;;;;;5072412;28;20104;-62
2022/05/23 04:22:44;;;;;;;26.15;13.32;;;;;;;;;;5070804;28;20032;-62
2022/05/23 04:25:16;;;;;;;22.45;11.60;;;;;;;;;;5071250;28;20059;-62
2022/05/23 04:27:43;;;;;;;28.08;11.65;;;;;;;;;;5071415;28;20152;-62
2022/05/23 04:30:10;;;;;;;21.52;10.45;;;;;;;;;;5071226;28;20404;-62
2022/05/23 04:35:44;;;;;;;18.52;9.80;;;;;;;;;;5033275;28;20041;-62
2022/05/23 04:38:11;;;;;;;22.42;11.38;;;;;;;;;;5050189;28;20032;-62
2022/05/23 04:40:40;;;;;;;16.00;9.27;;;;;;;;;;5033526;28;20456;-62
2022/05/23 04:43:09;;;;;;;17.98;9.48;;;;;;;;;;5033687;28;20029;-62
2022/05/23 04:45:36;;;;;;;20.35;10.00;;;;;;;;;;5033095;28;20048;-62
2022/05/23 04:51:16;;;;;;;19.38;10.75;;;;;;;;;;5023842;28;20521;-62
2022/05/23 04:53:53;;;;;;;21.77;11.75;;;;;;;;;;5010598;28;20383;-62
2022/05/23 04:56:21;;;;;;;19.73;10.45;;;;;;;;;;5000018;28;20539;-62
2022/05/23 04:58:50;;;;;;;17.10;9.57;;;;;;;;;;4998232;28;20117;-62
2022/05/23 05:01:16;;;;;;;19.08;9.88;;;;;;;;;;5027292;28;20033;-62
2022/05/23 05:03:42;;;;;;;18.00;9.48;;;;;;;;;;5010679;28;20037;-63
2022/05/23 05:06:09;;;;;;;22.35;7.90;;;;;;;;;;5018803;28;20049;-62
2022/05/23 05:08:35;;;;;;;19.63;8.43;;;;;;;;;;5051040;28;20020;-63
2022/05/23 05:11:03;;;;;;;24.42;8.63;;;;;;;;;;5071412;28;20029;-62
2022/05/23 05:13:36;;;;;;;20.02;7.53;;;;;;;;;;5072645;28;20028;-62
2022/05/23 05:16:03;;;;;;;;;;;;;;;;;;5071780;28;20029;-63
2022/05/23 05:18:31;;;;;;;25.88;6.32;;;;;;;;;;5071019;28;20531;-63
2022/05/23 05:21:29;;;;;;;15.18;5.85;;;;;;;;;;5043345;28;20083;-62
2022/05/23 05:24:14;;;;;;;15.68;5.30;;;;;;;;;;5048779;28;20094;-63
2022/05/23 05:27:00;;;;;;;20.58;4.55;;;;;;;;;;5050614;28;20121;-62
2022/05/23 05:29:27;;;;;;;13.38;4.20;;;;;;;;;;5056437;28;20032;-64
2022/05/23 05:32:07;;;;;;;15.15;3.35;;;;;;;;;;5046211;28;20063;-62
2022/05/23 05:34:37;;;;;;;14.80;4.20;;;;;;;;;;5050014;28;20108;-62
2022/05/23 05:37:09;;;;;;;14.15;3.90;;;;;;;;;;5055027;28;20037;-62
2022/05/23 05:39:36;;;;;;;21.00;3.80;;;;;;;;;;5050495;28;20033;-63
2022/05/23 05:42:02;;;;;;;21.10;4.32;;;;;;;;;;5052529;28;20347;-63
2022/05/23 05:44:39;;;;;;;12.70;3.65;;;;;;;;;;5048581;28;20530;-64
2022/05/23 05:47:09;;;;;;;20.10;3.70;;;;;;;;;;5047476;28;20033;-64
2022/05/23 05:49:38;;;;;;;19.42;3.53;;;;;;;;;;5047340;28;20036;-64
2022/05/23 05:52:13;;;;;;;19.55;3.33;;;;;;;;;;5049737;28;20493;-64
2022/05/23 05:54:50;;;;;;;17.13;3.60;;;;;;;;;;5044798;28;20649;-64
2022/05/23 05:57:16;;;;;;;13.77;3.30;;;;;;;;;;5050119;28;20052;-64
2022/05/23 05:59:43;;;;;;;13.57;3.28;;;;;;;;;;5053405;28;20064;-64
2022/05/23 06:02:09;;;;;;;17.50;3.70;;;;;;;;;;5051508;28;20013;-64
2022/05/23 06:04:36;;;;;;;18.08;3.10;;;;;;;;;;5060124;28;20118;-64
2022/05/23 06:12:51;;;;;;;15.52;3.05;;;;;;;;;;5079444;28;20057;-64
2022/05/23 06:15:37;;;;;;;21.10;3.95;;;;;;;;;;5061677;28;20035;-64
2022/05/23 06:18:03;;;;;;;19.30;3.53;;;;;;;;;;5057549;28;20393;-64
2022/05/23 06:20:30;;;;;;;13.48;3.40;;;;;;;;;;5053022;28;20025;-64
2022/05/23 06:22:57;;;;;;;18.67;3.83;;;;;;;;;;5052867;28;20032;-64
2022/05/23 06:25:24;;;;;;;15.25;3.28;;;;;;;;;;5061469;28;20048;-64
2022/05/23 06:27:52;;;;;;;11.32;2.58;;;;;;;;;;5051709;28;20033;-64
2022/05/23 06:30:24;;;;;;;20.43;5.17;;;;;;;;;;5053804;28;20017;-64
2022/05/23 06:33:09;;;;;;;20.15;4.70;;;;;;;;;;5053289;28;20362;-64
2022/05/23 06:35:50;;;;;;;14.40;3.40;;;;;;;;;;5052444;28;20033;-64
2022/05/23 06:38:19;;;;;;;16.60;3.85;;;;;;;;;;5053154;28;20029;-64
2022/05/23 06:40:50;;;;;;;11.48;3.53;;;;;;;;;;5053973;28;20024;-64
2022/05/23 06:43:19;;;;;;;10.45;3.08;;;;;;;;;;5054497;28;20032;-64
2022/05/23 06:46:04;;;;;;;17.75;3.60;;;;;;;;;;5034434;28;20413;-64
2022/05/23 06:48:51;;;;;;;12.02;2.75;;;;;;;;;;5000153;28;20045;-64
2022/05/23 06:51:27;;;;;;;16.90;3.55;;;;;;;;;;5012531;28;20038;-64
2022/05/23 06:53:56;;;;;;;12.25;4.20;;;;;;;;;;5012558;28;20041;-64
2022/05/23 06:56:35;;;;;;;16.38;3.10;;;;;;;;;;5012166;28;20046;-64
2022/05/23 06:59:02;;;;;;;25.45;3.83;;;;;;;;;;5011967;28;20200;-64
2022/05/23 07:01:33;;;;;;;12.73;3.67;;;;;;;;;;5012426;28;20121;-64
2022/05/23 07:04:20;;;;;;;16.20;4.13;;;;;;;;;;5011958;28;20037;-64
2022/05/23 07:12:36;;;;;;;16.70;3.40;;;;;;;;;;5012289;28;20088;-64
2022/05/23 07:15:05;;;;;;;10.32;2.83;;;;;;;;;;5011789;28;20022;-64
2022/05/23 07:17:37;;;;;;;18.23;3.97;;;;;;;;;;5011858;28;20033;-64
2022/05/23 07:20:21;;;;;;;10.02;2.70;;;;;;;;;;5012131;28;20038;-64
2022/05/23 07:23:06;;;;;;;16.75;3.30;;;;;;;;;;5012062;28;20128;-64
2022/05/23 07:25:36;;;;;;;12.50;3.47;;;;;;;;;;5023795;28;20051;-64
2022/05/23 07:28:03;;;;;;;21.98;3.33;;;;;;;;;;5052023;28;20033;-64
2022/05/23 07:30:30;;;;;;;15.60;3.47;;;;;;;;;;5052433;28;20029;-64
2022/05/23 07:32:57;;;;;;;13.27;3.05;;;;;;;;;;5052148;28;20029;-64
2022/05/23 07:35:42;;;;;;;15.00;2.65;;;;;;;;;;5053992;28;20040;-64
2022/05/23 07:38:09;;;;;;;11.35;2.85;;;;;;;;;;5052379;28;20488;-64
2022/05/23 07:40:36;;;;;;;14.50;3.10;;;;;;;;;;5052266;28;20029;-64
2022/05/23 07:43:06;;;;;;;12.80;2.90;;;;;;;;;;5052019;28;20053;-64
2022/05/23 07:45:33;;;;;;;16.02;4.20;;;;;;;;;;5052115;28;20063;-64
2022/05/23 07:47:59;;;;;;;20.23;2.53;;;;;;;;;;5051942;28;20075;-64
2022/05/23 07:50:30;;;;;;;16.05;3.13;;;;;;;;;;5052273;28;20515;-64
2022/05/23 08:01:27;;;;;;;14.07;2.63;;;;;;;;;;5051992;28;20107;-64
2022/05/23 08:03:59;;;;;;;26.35;3.83;;;;;;;;;;5051729;28;20032;-64
2022/05/23 08:06:32;;;;;;;13.60;3.58;;;;;;;;;;5052048;28;20473;-64
2022/05/23 08:08:58;;;;;;;16.08;3.20;;;;;;;;;;5051532;28;20040;-64
2022/05/23 08:11:24;;;;;;;15.30;3.75;;;;;;;;;;5051499;28;20389;-64
2022/05/23 08:14:07;;;;;;;11.75;3.03;;;;;;;;;;5051751;28;20071;-64
2022/05/23 08:16:44;;;;;;;23.85;3.25;;;;;;;;;;5051640;28;20032;-64
2022/05/23 08:19:11;;;;;;;14.20;3.15;;;;;;;;;;5051576;28;20033;-64
2022/05/23 08:21:40;;;;;;;11.00;3.17;;;;;;;;;;5055363;28;20027;-64
2022/05/23 08:24:08;;;;;;;14.90;2.72;;;;;;;;;;5071315;28;20511;-64
2022/05/23 08:26:35;;;;;;;21.58;2.95;;;;;;;;;;5072473;28;20101;-64
2022/05/23 08:29:02;;;;;;;10.43;2.95;;;;;;;;;;5071132;28;20028;-64
2022/05/23 08:31:37;;;;;;;11.45;3.15;;;;;;;;;;5071491;28;20552;-64
2022/05/23 08:34:11;;;;;;;17.08;3.33;;;;;;;;;;5071262;28;20082;-64
2022/05/23 08:36:38;;;;;;;11.07;2.97;;;;;;;;;;5072816;28;20036;-64
2022/05/23 08:39:05;;;;;;;11.60;2.88;;;;;;;;;;5071050;28;20035;-64
2022/05/23 08:41:45;;;;;;;14.77;3.08;;;;;;;;;;5070975;28;20024;-64
2022/05/23 08:44:47;;;;;;;18.30;4.45;;;;;;;;;;5071140;28;20028;-64
2022/05/23 08:47:31;;;;;;;17.35;3.40;;;;;;;;;;5071104;28;20115;-64
2022/05/23 08:50:00;;;;;;;14.18;3.13;;;;;;;;;;5070845;28;20515;-64
2022/05/23 08:52:29;;;;;;;10.52;2.38;;;;;;;;;;5071093;28;20025;-64
2022/05/23 08:55:04;;;;;;;16.98;4.07;;;;;;;;;;5070315;28;20027;-64
2022/05/23 08:58:00;;;;;;;8.60;2.55;;;;;;;;;;5070773;28;20048;-64
2022/05/23 09:00:36;;;;;;;14.18;2.80;;;;;;;;;;5071058;28;20081;-64
2022/05/23 09:03:06;;;;;;;21.00;3.10;;;;;;;;;;5070791;28;20026;-64
2022/05/23 09:05:39;;;;;;;23.80;3.55;;;;;;;;;;5070952;28;20074;-64
2022/05/23 09:08:07;;;;;;;17.05;3.40;;;;;;;;;;5071518;28;20477;-64
2022/05/23 09:10:33;;;;;;;21.77;3.85;;;;;;;;;;5071960;28;20098;-64
2022/05/23 09:13:00;;;;;;;16.05;3.00;;;;;;;;;;5072009;28;20445;-64
2022/05/23 09:15:26;;;;;;;20.08;3.63;;;;;;;;;;5072106;28;20024;-64
2022/05/23 09:17:57;;;;;;;20.42;2.67;;;;;;;;;;5072128;28;20029;-64
2022/05/23 09:20:33;;;;;;;16.83;3.90;;;;;;;;;;5072072;28;20032;-64
2022/05/23 09:23:00;;;;;;;15.43;3.17;;;;;;;;;;5071707;28;20074;-64
2022/05/23 09:25:26;;;;;;;15.48;2.88;;;;;;;;;;5071877;28;20029;-64
2022/05/23 09:27:53;;;;;;;18.48;4.20;;;;;;;;;;5071960;28;20393;-64
2022/05/23 09:30:27;;;;;;;20.08;3.90;;;;;;;;;;5071859;28;20077;-64
2022/05/23 09:32:53;;;;;;;12.55;3.25;;;;;;;;;;5072015;28;20058;-64
2022/05/23 09:35:22;;;;;;;13.55;2.97;;;;;;;;;;5070794;28;20016;-64
2022/05/23 09:38:05;;;;;;;10.93;2.63;;;;;;;;;;5071926;28;20035;-64
2022/05/23 09:40:37;;;;;;;13.65;2.25;;;;;;;;;;5070424;28;20043;-64
2022/05/23 09:49:05;;;;;;;2.92;1.58;;;;;;;;;;5071467;28;20401;-64
2022/05/23 09:51:32;;;;;;;11.50;2.25;;;;;;;;;;5071787;28;20520;-64
2022/05/23 09:54:03;;;;;;;6.88;1.73;;;;;;;;;;5071347;28;20075;-64
2022/05/23 09:56:32;;;;;;;4.60;1.75;;;;;;;;;;5071573;28;20044;-64
2022/05/23 09:59:00;;;;;;;7.10;1.85;;;;;;;;;;5071373;28;20044;-64
2022/05/23 10:01:40;;;;;;;8.52;1.30;;;;;;;;;;5070497;28;20033;-64
2022/05/23 10:04:13;;;;;;;7.57;2.13;;;;;;;;;;5071545;28;20028;-64
2022/05/23 10:06:42;;;;;;;8.15;1.52;;;;;;;;;;5071730;28;20523;-64
2022/05/23 10:09:09;;;;;;;8.95;2.00;;;;;;;;;;5070968;28;20025;-64
2022/05/23 10:11:56;;;;;;;6.82;2.83;;;;;;;;;;5070295;28;20535;-64
2022/05/23 10:14:23;;;;;;;6.32;1.55;;;;;;;;;;5070443;28;20036;-64
2022/05/23 10:16:51;;;;;;;10.35;2.20;;;;;;;;;;5071524;28;20024;-64
2022/05/23 10:19:43;;;;;;;8.85;1.77;;;;;;;;;;5071944;28;20032;-64
2022/05/23 10:22:18;;;;;;;5.23;1.93;;;;;;;;;;5072028;28;20032;-64
2022/05/23 10:24:58;;;;;;;6.65;2.13;;;;;;;;;;5054882;28;20422;-64
2022/05/23 10:27:30;;;;;;;8.15;2.00;;;;;;;;;;5042770;28;20057;-64
2022/05/23 10:29:58;;;;;;;12.43;2.85;;;;;;;;;;5051528;28;20029;-64
2022/05/23 10:32:32;;;;;;;10.13;2.60;;;;;;;;;;5051616;28;20033;-64
2022/05/23 10:35:03;;;;;;;8.88;2.38;;;;;;;;;;5053151;28;20579;-64
2022/05/23 10:37:36;;;;;;;10.43;2.30;;;;;;;;;;5052986;28;20116;-64
2022/05/23 10:42:49;;;;;;;9.77;2.40;;;;;;;;;;5053267;28;20036;-64
2022/05/23 10:45:33;;;;;;;8.98;2.22;;;;;;;;;;5051466;28;20075;-63
2022/05/23 10:48:10;;;;;;;11.77;2.25;;;;;;;;;;5034536;28;20030;-64
2022/05/23 10:50:41;;;;;;;7.78;1.92;;;;;;;;;;5043016;28;20041;-64
2022/05/23 10:53:23;;;;;;;10.27;1.73;;;;;;;;;;5044901;28;20131;-64
2022/05/23 10:55:58;;;;;;;6.30;1.60;;;;;;;;;;5049865;28;20475;-63
2022/05/23 10:58:45;;;;;;;14.77;2.00;;;;;;;;;;5053636;28;20052;-63
2022/05/23 11:01:20;;;;;;;9.80;1.85;;;;;;;;;;5046255;28;20116;-64
2022/05/23 11:03:46;;;;;;;7.20;1.85;;;;;;;;;;5053161;28;20476;-63
2022/05/23 11:06:45;;;;;;;9.73;2.00;;;;;;;;;;5051753;28;20500;-63
2022/05/23 11:09:20;;;;;;;6.00;1.20;;;;;;;;;;5018169;28;20045;-63
2022/05/23 11:12:09;;;;;;;10.18;1.58;;;;;;;;;;5052198;28;20033;-64
2022/05/23 11:14:48;;;;;;;4.53;1.48;;;;;;;;;;5041297;28;20049;-64
2022/05/23 11:17:14;;;;;;;7.57;1.30;;;;;;;;;;5045083;28;20091;-63
2022/05/23 11:19:46;;;;;;;6.90;2.05;;;;;;;;;;5055289;28;20035;-63
2022/05/23 11:22:20;;;;;;;11.05;1.60;;;;;;;;;;5051491;28;20037;-64
2022/05/23 11:24:50;;;;;;;7.78;2.03;;;;;;;;;;5057655;28;20033;-63
2022/05/23 11:35:48;;;;;;;7.10;2.92;;;;;;;;;;5044690;28;20556;-64
2022/05/23 11:38:15;;;;;;;11.68;1.83;;;;;;;;;;5047224;28;20033;-63
2022/05/23 11:40:52;;;;;;;6.45;1.33;;;;;;;;;;5051967;28;20116;-64
2022/05/23 11:43:19;;;;;;;8.80;1.75;;;;;;;;;;5033920;28;20034;-64
2022/05/23 11:46:05;;;;;;;4.57;1.13;;;;;;;;;;5033758;28;20512;-64
2022/05/23 11:48:49;;;;;;;4.75;1.20;;;;;;;;;;5032793;28;20436;-64
2022/05/23 11:51:25;;;;;;;5.43;1.58;;;;;;;;;;5032896;28;20025;-64
2022/05/23 11:53:55;;;;;;;7.63;1.63;;;;;;;;;;5033221;28;20021;-64
2022/05/23 11:56:32;;;;;;;7.82;1.67;;;;;;;;;;5032804;28;20549;-64
2022/05/23 11:58:59;;;;;;;5.35;1.23;;;;;;;;;;5033047;28;20056;-64
2022/05/23 12:01:27;;;;;;;6.25;1.50;;;;;;;;;;5032924;28;20104;-64
2022/05/23 12:03:57;;;;;;;11.55;2.95;;;;;;;;;;5031461;28;20041;-64
2022/05/23 12:06:25;;;;;;;5.17;1.53;;;;;;;;;;5032838;28;20379;-64
2022/05/23 12:09:06;;;;;;;8.43;1.60;;;;;;;;;;5032832;28;20474;-64
2022/05/23 12:11:46;;;;;;;6.85;1.50;;;;;;;;;;5032583;28;20033;-64
2022/05/23 12:14:12;;;;;;;8.05;1.42;;;;;;;;;;5032663;28;20029;-64
2022/05/23 12:16:41;;;;;;;7.25;1.25;;;;;;;;;;5032442;28;20029;-64
2022/05/23 12:19:29;;;;;;;7.65;1.50;;;;;;;;;;5032580;28;20379;-64
2022/05/23 12:22:15;;;;;;;4.60;1.02;;;;;;;;;;5039052;28;20112;-64
2022/05/23 12:24:59;;;;;;;10.90;1.48;;;;;;;;;;5051027;28;20116;-64
2022/05/23 12:27:29;;;;;;;8.30;1.20;;;;;;;;;;5052040;28;20037;-64
2022/05/23 12:30:14;;;;;;;8.82;1.52;;;;;;;;;;5052449;28;20078;-64
2022/05/23 12:32:40;;;;;;;11.85;2.95;;;;;;;;;;5051788;28;20054;-64
2022/05/23 12:35:07;;;;;;;7.00;1.60;;;;;;;;;;5052484;28;20092;-64
2022/05/23 12:37:35;;;;;;;6.88;1.45;;;;;;;;;;5052010;28;20541;-64
2022/05/23 12:40:04;;;;;;;6.82;1.40;;;;;;;;;;5063426;28;20036;-64
2022/05/23 12:42:49;;;;;;;5.72;1.30;;;;;;;;;;5054657;28;20041;-64
2022/05/23 12:45:35;;;;;;;10.00;1.52;;;;;;;;;;5057337;28;20141;-64
2022/05/23 12:48:15;;;;;;;5.85;1.52;;;;;;;;;;5071874;28;20480;-64
2022/05/23 12:50:50;;;;;;;6.45;1.27;;;;;;;;;;5071236;28;20039;-64
2022/05/23 12:53:23;;;;;;;5.72;1.38;;;;;;;;;;5052059;28;20055;-64
2022/05/23 12:56:07;;;;;;;5.75;1.45;;;;;;;;;;5051967;28;20555;-64
2022/05/23 12:58:53;;;;;;;9.18;1.70;;;;;;;;;;5051943;28;20043;-64
2022/05/23 13:01:23;;;;;;;7.38;1.40;;;;;;;;;;5051940;28;20082;-64
2022/05/23 13:03:49;;;;;;;7.25;1.20;;;;;;;;;;5051929;28;20029;-64
2022/05/23 13:06:28;;;;;;;6.20;1.33;;;;;;;;;;5052080;28;20036;-64
2022/05/23 13:08:54;;;;;;;6.53;1.27;;;;;;;;;;5051862;28;20040;-64
2022/05/23 13:11:26;;;;;;;8.88;1.38;;;;;;;;;;5052072;28;20124;-64
2022/05/23 13:13:52;;;;;;;8.20;1.90;;;;;;;;;;5051846;28;20436;-64
2022/05/23 13:16:22;;;;;;;8.50;2.00;;;;;;;;;;5051561;28;20028;-64
2022/05/23 13:27:07;;;;;;;13.88;2.30;;;;;;;;;;5051577;28;20036;-64
2022/05/23 13:29:34;;;;;;;9.70;1.58;;;;;;;;;;5051379;28;20037;-64
2022/05/23 13:32:02;;;;;;;5.10;1.30;;;;;;;;;;5051509;28;20036;-64
2022/05/23 13:34:33;;;;;;;7.82;1.63;;;;;;;;;;5051393;28;20029;-64
2022/05/23 13:36:59;;;;;;;6.20;1.30;;;;;;;;;;5051454;28;20116;-64
2022/05/23 13:39:26;;;;;;;8.30;1.30;;;;;;;;;;5051523;28;20126;-64
2022/05/23 13:41:52;;;;;;;8.18;1.50;;;;;;;;;;5051460;28;20040;-64
2022/05/23 13:44:28;;;;;;;10.30;2.00;;;;;;;;;;5051608;28;20559;-64
2022/05/23 13:46:57;;;;;;;7.43;1.15;;;;;;;;;;5051091;28;20071;-64
2022/05/23 13:49:28;;;;;;;8.80;1.70;;;;;;;;;;5051474;28;20408;-64
2022/05/23 13:52:00;;;;;;;7.43;1.20;;;;;;;;;;5051303;28;20025;-64
2022/05/23 13:54:34;;;;;;;6.73;1.20;;;;;;;;;;5053509;28;20033;-64
2022/05/23 13:57:05;;;;;;;11.98;2.10;;;;;;;;;;5041953;28;20413;-64
2022/05/23 13:59:38;;;;;;;6.03;1.60;;;;;;;;;;5048666;28;20025;-63
2022/05/23 14:02:07;;;;;;;5.90;1.00;;;;;;;;;;5052662;28;20108;-64
2022/05/23 14:04:35;;;;;;;4.07;0.90;;;;;;;;;;5053652;28;20130;-64
2022/05/23 14:07:05;;;;;;;8.05;1.30;;;;;;;;;;5053932;28;20067;-64
2022/05/23 14:09:32;;;;;;;4.68;1.10;;;;;;;;;;5053384;28;20021;-64
2022/05/23 14:12:06;;;;;;;8.65;1.35;;;;;;;;;;5053725;28;20048;-64
2022/05/23 14:14:40;;;;;;;7.47;1.85;;;;;;;;;;5036710;28;20482;-64
2022/05/23 14:17:12;;;;;;;5.93;1.20;;;;;;;;;;5033914;28;20386;-64
2022/05/23 14:19:43;;;;;;;7.77;1.70;;;;;;;;;;5083262;28;20412;-64
2022/05/23 14:22:21;;;;;;;9.10;1.42;;;;;;;;;;5056271;28;20047;-64
2022/05/23 14:24:50;;;;;;;8.27;1.75;;;;;;;;;;5053284;28;20489;-63
2022/05/23 14:27:17;;;;;;;5.47;1.38;;;;;;;;;;5053540;28;20017;-63
2022/05/23 14:29:43;;;;;;;10.57;1.75;;;;;;;;;;5052850;28;20035;-63
2022/05/23 14:32:11;;;;;;;7.57;0.98;;;;;;;;;;5053377;28;20104;-63
2022/05/23 14:34:37;;;;;;;7.50;1.50;;;;;;;;;;5053201;28;20414;-64
2022/05/23 14:37:08;;;;;;;6.28;1.33;;;;;;;;;;5053192;28;20021;-64
2022/05/23 14:39:35;;;;;;;9.55;1.98;;;;;;;;;;5034491;28;20063;-64
2022/05/23 14:42:21;;;;;;;8.20;1.73;;;;;;;;;;5033568;28;20075;-64
2022/05/23 14:45:03;;;;;;;8.05;1.30;;;;;;;;;;5051741;28;20420;-63
2022/05/23 14:47:29;;;;;;;6.82;1.70;;;;;;;;;;5060739;28;20365;-64
2022/05/23 14:50:14;;;;;;;9.45;0.93;;;;;;;;;;5053013;28;20377;-64
2022/05/23 14:55:55;;;;;;;10.27;1.02;;;;;;;;;;5051036;28;20477;-63
2022/05/23 15:01:16;;;;;;;5.63;1.10;;;;;;;;;;5051819;28;20476;-63
2022/05/23 15:03:44;;;;;;;4.82;1.20;;;;;;;;;;5042584;28;20037;-63
2022/05/23 15:06:10;;;;;;;8.48;1.23;;;;;;;;;;5059930;28;20095;-63
2022/05/23 15:08:37;;;;;;;5.90;1.15;;;;;;;;;;5053011;28;20039;-63
2022/05/23 15:11:04;;;;;;;13.88;1.85;;;;;;;;;;5034472;28;20091;-63
2022/05/23 15:13:33;;;;;;;9.38;1.67;;;;;;;;;;5042522;28;20063;-64
2022/05/23 15:16:02;;;;;;;8.75;1.83;;;;;;;;;;5073823;28;20024;-64
2022/05/23 15:18:30;;;;;;;9.00;1.63;;;;;;;;;;5073891;28;20111;-63
2022/05/23 15:20:57;;;;;;;9.45;1.77;;;;;;;;;;5073509;28;20020;-63
2022/05/23 15:23:23;;;;;;;11.43;1.73;;;;;;;;;;5071022;28;20033;-63
2022/05/23 15:25:49;;;;;;;9.48;0.95;;;;;;;;;;5053672;28;20138;-63
2022/05/23 15:28:16;;;;;;;6.20;1.50;;;;;;;;;;5053462;28;20028;-63
2022/05/23 15:30:43;;;;;;;9.60;1.20;;;;;;;;;;5043423;28;20029;-62
2022/05/23 15:33:09;;;;;;;5.95;1.00;;;;;;;;;;5054035;28;20027;-63
2022/05/23 15:35:36;;;;;;;4.18;0.98;;;;;;;;;;5064147;28;20043;-63
2022/05/23 15:38:02;;;;;;;7.93;1.20;;;;;;;;;;5054026;28;20056;-63
2022/05/23 15:40:30;;;;;;;5.45;1.17;;;;;;;;;;5071530;28;20028;-63
2022/05/23 15:42:56;;;;;;;10.38;1.90;;;;;;;;;;5072883;28;20029;-63
2022/05/23 15:45:25;;;;;;;5.25;1.10;;;;;;;;;;5073293;28;20036;-63
2022/05/23 15:47:53;;;;;;;9.95;2.22;;;;;;;;;;5067251;28;20028;-63
2022/05/23 15:50:19;;;;;;;8.40;1.70;;;;;;;;;;5053374;28;20024;-63
2022/05/23 15:52:46;;;;;;;14.20;1.95;;;;;;;;;;5053022;28;20489;-63
2022/05/23 15:55:12;;;;;;;4.20;1.35;;;;;;;;;;5041268;28;20024;-63
2022/05/23 15:57:44;;;;;;;4.45;1.15;;;;;;;;;;5049157;28;20045;-63
2022/05/23 16:00:12;;;;;;;5.53;0.93;;;;;;;;;;5067760;28;20032;-63
2022/05/23 16:02:44;;;;;;;6.65;1.50;;;;;;;;;;5045079;28;20032;-63
2022/05/23 16:05:11;;;;;;;7.78;1.00;;;;;;;;;;5044328;28;20042;-63
2022/05/23 16:07:38;;;;;;;7.07;1.38;;;;;;;;;;5060757;28;20025;-63
2022/05/23 16:10:05;;;;;;;5.78;1.38;;;;;;;;;;5066796;28;20431;-63